Latest Coastal Weather Observations for Flinders Island Airport

IDT60701

Issued at 10:12 pm EDT Friday 6 March 2015 (issued every 10 minutes, with the page automatically refreshed every 10 minutes)

About coastal observations | Map of coastal stations | Coastal observations for TAS | Marine services | Other Formats
Station Details ID: 099005 Name: FLINDERS ISLAND AIRPORT Lat: -40.09 Lon: 148.00 Height: 9.0 m
Data from the previous 72 hours. | See also: Recent months at Flinders Island Airport
Date/Time
EDT
Temp

°C
Wind Pressure Rain
since 9am
mm
Weather Cloud Vis
km
Sea
Height
m
Swell
Dir
 
Speed
knots
Gust
knots
hPa Trend Height
m
Period
s
Dir
06/10:00pm 15.8 WSW 11 14 1008.3 - 0.0 - - 10 - - - -
06/09:30pm 15.8 WSW 13 15 1008.1 - 0.0 - - 10 - - - -
06/09:00pm 16.2 WSW 11 16 1008.1 - 0.0 - Mostly clear 10 - - - -
06/08:30pm 16.0 WSW 15 18 1007.7 - 0.0 - Partly cloudy 10 - - - -
06/08:00pm 16.0 WSW 11 16 1007.3 - 0.0 - Partly cloudy 10 - - - -
06/07:30pm 16.5 WSW 15 18 1006.8 - 0.0 - - 10 - - - -
06/07:00pm 17.1 W 15 18 1006.1 - 0.0 - - 10 - - - -
06/06:30pm 17.7 WSW 15 19 1006.2 - 0.0 - - 10 - - - -
06/06:00pm 18.2 WSW 15 18 1005.8 - 0.0 - - 10 - - - -
06/05:30pm 18.4 WSW 17 20 1005.3 - 0.0 - - 10 - - - -
06/05:00pm 18.2 WSW 18 22 1004.9 - 0.0 - - 10 - - - -
06/04:30pm 19.0 WSW 20 24 1004.8 - 0.0 - - 10 - - - -
06/04:00pm 18.6 WSW 20 24 1004.2 - 0.0 - - 10 - - - -
06/03:30pm 18.8 WSW 23 27 1003.8 - 0.0 - - 10 - - - -
06/03:00pm 18.4 WSW 22 28 1003.9 - 0.0 - - 10 - - - -
06/02:30pm 18.4 WSW 24 28 1003.3 - 0.0 - - 10 - - - -
06/02:00pm 18.3 WSW 25 31 1003.1 - 0.0 - - 10 - - - -
06/01:30pm 18.3 WSW 29 33 1002.6 - 0.0 - - 10 - - - -
06/01:00pm 18.6 WSW 26 33 1002.4 - 0.0 - - 10 - - - -
06/12:30pm 18.5 WSW 29 36 1001.5 - 0.0 - - 10 - - - -
06/12:00pm 18.7 WSW 27 32 1001.6 - 0.0 - - 10 - - - -
06/11:30am 18.1 WSW 30 36 1001.1 - 0.0 - Partly cloudy 10 - - - -
06/11:00am 17.8 WSW 31 38 1000.5 - 0.0 - Partly cloudy 10 - - - -
06/10:30am 18.2 WSW 30 36 1000.4 - 0.0 - Partly cloudy 10 - - - -
06/10:06am 17.2 WSW 32 42 999.8 - 0.0 - Partly cloudy 10 - - - -
06/10:00am 17.4 WSW 34 42 999.9 - 0.0 - Partly cloudy 10 - - - -
06/09:30am 17.5 W 34 43 998.8 - 0.0 - Partly cloudy 10 - - - -
06/09:28am 17.5 W 33 43 999.0 - 0.0 - Partly cloudy 10 - - - -
06/09:00am 17.2 W 36 42 998.7 - 2.0 - Partly cloudy 10 - - - -
06/08:30am 16.8 W 36 42 998.4 - 2.0 - Partly cloudy 10 - - - -
06/08:03am 16.7 W 34 44 998.6 - 2.0 - Partly cloudy 10 - - - -
06/08:00am 16.7 W 35 43 998.6 - 2.0 - Partly cloudy 10 - - - -
06/07:38am 16.6 W 34 48 998.5 - 2.0 - Partly cloudy 10 - - - -
06/07:37am 16.6 W 34 48 998.5 - 2.0 - Partly cloudy 10 - - - -
06/07:30am 16.5 W 32 41 998.6 - 2.0 - Partly cloudy 10 - - - -
06/07:25am 16.5 W 30 40 998.6 - 2.0 - Partly cloudy 10 - - - -
06/07:23am 16.5 W 30 42 998.5 - 2.0 - Partly cloudy 10 - - - -
06/07:20am 16.4 W 31 42 998.3 - 2.0 - Partly cloudy 10 - - - -
06/07:07am 16.5 W 39 51 997.8 - 2.0 - Partly cloudy 10 - - - -
06/07:00am 16.4 W 37 50 997.5 - 2.0 - Partly cloudy 10 - - - -
06/06:57am 16.3 W 36 48 997.5 - 2.0 - Partly cloudy 10 - - - -
06/06:37am 16.4 W 37 51 997.3 - 2.0 - Partly cloudy 10 - - - -
06/06:30am 16.2 W 36 45 997.5 - 2.0 - Partly cloudy 10 - - - -
06/06:14am 16.4 W 38 48 997.5 - 2.0 - Partly cloudy 10 - - - -
06/06:04am 16.3 W 36 48 997.6 - 2.0 - Partly cloudy 10 - - - -
06/06:00am 16.2 W 35 49 997.6 - 2.0 - Cloudy 10 - - - -
06/05:32am 15.9 W 36 46 997.6 - 2.0 - Partly cloudy 10 - - - -
06/05:30am 15.9 W 36 45 997.8 - 2.0 - Partly cloudy 10 - - - -
06/05:00am 15.9 W 34 44 998.3 - 2.0 - Partly cloudy 10 - - - -
06/04:56am 15.7 W 34 48 998.3 - 2.0 - Partly cloudy 9 - - - -
06/04:55am 15.7 W 35 48 998.4 - 2.0 - Partly cloudy 9 - - - -
06/04:44am 15.0 W 36 47 998.8 - 2.0 - Partly cloudy 5 - - - -
06/04:39am 14.9 W 35 45 998.6 - 2.0 - Partly cloudy 5 - - - -
06/04:38am 15.0 W 36 45 998.6 - 2.0 - Partly cloudy 6 - - - -
06/04:34am 15.6 W 36 46 998.6 - 2.0 - Partly cloudy 10 - - - -
06/04:30am 15.4 W 38 46 998.7 - 2.0 - Partly cloudy 7 - - - -
06/04:23am 14.8 W 37 47 998.9 - 1.8 - Partly cloudy 5 - - - -
06/04:20am 14.7 W 36 47 998.8 - 1.8 - Partly cloudy 5 - - - -
06/04:04am 15.3 W 36 46 999.2 - 1.8 - Partly cloudy 10 - - - -
06/04:00am 15.1 W 35 44 999.2 - 1.8 - Partly cloudy 9 - - - -
06/03:50am 14.8 W 31 42 999.1 - 1.8 - Partly cloudy 10 - - - -
06/03:34am 14.3 W 31 44 999.2 - 1.8 - Partly cloudy 5 - - - -
06/03:33am 14.3 W 31 39 999.3 - 1.8 - Partly cloudy 5 - - - -
06/03:32am 14.3 W 30 39 999.2 - 1.8 - Partly cloudy 5 - - - -
06/03:30am 14.8 W 29 40 999.3 - 1.4 - Partly cloudy 9 - - - -
06/03:02am 14.3 W 35 45 1000.2 - 1.4 - Partly cloudy 6 - - - -
06/03:00am 14.3 W 34 45 1000.2 - 1.4 - Cloudy 6 - - - -
06/02:45am 14.2 W 35 45 1000.9 - 1.4 - Partly cloudy 5 - - - -
06/02:34am 14.9 W 36 46 1001.0 - 1.4 - Partly cloudy 10 - - - -
06/02:30am 15.2 W 36 43 1001.1 - 1.4 - Partly cloudy 9 - - - -
06/02:14am 14.5 W 34 47 1001.1 - 1.4 - Partly cloudy 8 - - - -
06/02:00am 14.3 W 33 50 1001.5 - 1.4 - Partly cloudy 6 - - - -
06/01:45am 14.2 W 32 45 1002.0 - 1.4 - Partly cloudy 5 - - - -
06/01:36am 14.6 W 35 45 1002.2 - 1.2 - Partly cloudy 10 - - - -
06/01:34am 14.9 W 36 45 1002.0 - 1.2 - Partly cloudy 10 - - - -
06/01:30am 14.7 W 35 45 1002.3 - 1.2 - Partly cloudy 10 - - - -
06/01:19am 13.8 W 34 49 1002.5 - 1.2 - Partly cloudy 5 - - - -
06/01:06am 14.4 W 33 42 1002.5 - 0.8 - Partly cloudy 5 - - - -
06/01:00am 15.3 W 32 42 1002.3 - 0.8 - Partly cloudy 10 - - - -
06/12:34am 14.9 W 37 49 1002.7 - 0.8 - Partly cloudy 9 - - - -
06/12:30am 14.6 W 37 49 1002.7 - 0.8 - Partly cloudy 7 - - - -
06/12:23am 14.3 W 35 46 1003.0 - 0.8 - Partly cloudy 5 - - - -
06/12:07am 14.0 W 37 45 1003.3 - 0.8 - Partly cloudy 5 - - - -
06/12:00am 14.6 W 35 45 1003.4 - 0.8 Recent precip. Cloudy 10 - - - -
 
Date/Time
EDT
Temp

°C
Wind Pressure Rain
since 9am
mm
Weather Cloud Vis
km
Sea
Height
m
Swell
Dir
 
Speed
knots
Gust
knots
hPa Trend Height
m
Period
s
Dir
05/11:57pm 14.3 W 37 50 1003.4 - 0.8 - Partly cloudy 8 - - - -
05/11:48pm 14.1 W 33 50 1003.7 - 0.8 - Partly cloudy 6 - - - -
05/11:45pm 13.9 W 30 40 1003.7 - 0.8 - Partly cloudy 5 - - - -
05/11:41pm 13.8 W 30 38 1003.7 - 0.8 - Partly cloudy 5 - - - -
05/11:30pm 14.4 W 29 40 1004.0 - 0.4 - Partly cloudy 10 - - - -
05/11:01pm 14.7 W 34 46 1004.4 - 0.4 - Partly cloudy 10 - - - -
05/11:00pm 14.6 W 33 42 1004.5 - 0.4 - Partly cloudy 10 - - - -
05/10:30pm 14.7 W 33 44 1005.0 - 0.4 - Partly cloudy 10 - - - -
05/10:00pm 14.7 W 30 41 1005.6 - 0.4 - Partly cloudy 10 - - - -
05/09:31pm 14.8 W 29 40 1005.7 - 0.4 - Partly cloudy 10 - - - -
05/09:30pm 14.8 W 28 36 1005.7 - 0.4 - Partly cloudy 10 - - - -
05/09:20pm 14.6 W 27 38 1005.9 - 0.4 - Partly cloudy 10 - - - -
05/09:18pm 14.5 W 29 41 1005.9 - 0.4 - Partly cloudy 10 - - - -
05/09:00pm 14.0 W 33 44 1006.2 - 0.4 Recent precip. Cloudy 10 - - - -
05/08:54pm 13.6 W 27 43 1006.2 - 0.4 - Partly cloudy 10 - - - -
05/08:35pm 13.0 W 32 42 1006.7 - 0.2 - Partly cloudy 5 - - - -
05/08:33pm 14.0 W 32 42 1006.7 - 0.0 - Partly cloudy 10 - - - -
05/08:30pm 14.0 W 33 42 1006.7 - 0.0 - Partly cloudy 10 - - - -
05/08:04pm 15.2 W 31 41 1006.6 - 0.0 - Partly cloudy 10 - - - -
05/08:00pm 15.2 W 33 41 1006.7 - 0.0 - Partly cloudy 10 - - - -
05/07:30pm 14.8 W 33 41 1007.1 - 0.0 - Partly cloudy 10 - - - -
05/07:00pm 15.0 W 33 43 1007.6 - 0.0 - Partly cloudy 10 - - - -
05/06:39pm 15.5 W 30 40 1007.8 - 0.0 - Partly cloudy 10 - - - -
05/06:30pm 15.4 W 31 40 1007.9 - 0.0 - Partly cloudy 10 - - - -
05/06:03pm 15.6 W 33 43 1008.0 - 0.0 - Partly cloudy 10 - - - -
05/06:00pm 15.4 W 33 41 1008.0 - 0.0 - Cloudy 10 - - - -
05/05:30pm 15.3 W 29 37 1008.1 - 0.0 - Partly cloudy 10 - - - -
05/05:25pm 15.5 W 30 40 1008.2 - 0.0 - Partly cloudy 10 - - - -
05/05:00pm 16.2 W 32 39 1008.1 - 0.0 - Partly cloudy 10 - - - -
05/04:34pm 16.1 WSW 33 43 1008.2 - 0.0 - Partly cloudy 10 - - - -
05/04:30pm 16.0 WSW 34 43 1008.2 - 0.0 - Partly cloudy 10 - - - -
05/04:00pm 16.2 WSW 31 39 1008.7 - 0.0 - Partly cloudy 10 - - - -
05/03:30pm 15.9 WSW 30 35 1009.1 - 0.0 - Partly cloudy 10 - - - -
05/03:00pm 16.0 WSW 30 38 1009.4 - 0.0 - Mostly cloudy 10 - - - -
05/02:30pm 16.4 WSW 29 37 1009.6 - 0.0 - Partly cloudy 10 - - - -
05/02:00pm 16.1 WSW 28 36 1009.4 - 0.0 - Partly cloudy 10 - - - -
05/01:54pm 16.0 WSW 28 38 1009.5 - 0.0 - Partly cloudy 10 - - - -
05/01:30pm 15.1 WSW 29 38 1009.7 - 0.0 - Partly cloudy 10 - - - -
05/01:00pm 15.7 WSW 28 34 1009.5 - 0.0 - Partly cloudy 10 - - - -
05/12:32pm 15.4 WSW 23 33 1010.0 - 0.0 - Partly cloudy 10 - - - -
05/12:30pm 15.4 WSW 23 32 1010.0 - 0.0 - Partly cloudy 10 - - - -
05/12:00pm 15.4 SW 25 34 1010.0 - 0.0 - Partly cloudy 10 - - - -
05/11:57am 15.7 SW 26 36 1010.1 - 0.0 - Partly cloudy 10 - - - -
05/11:30am 15.2 SW 29 38 1009.8 - 0.0 - Partly cloudy 10 - - - -
05/11:01am 14.7 SW 30 40 1009.1 - 0.0 - Partly cloudy 10 - - - -
05/11:00am 14.6 SW 31 40 1009.1 - 0.0 - Partly cloudy 10 - - - -
05/10:37am 13.9 SW 28 39 1008.9 - 0.0 - Partly cloudy 10 - - - -
05/10:30am 15.0 SW 29 37 1008.8 - 0.0 - Partly cloudy 10 - - - -
05/10:19am 14.2 SW 30 40 1008.7 - 0.0 - Partly cloudy 10 - - - -
05/10:00am 13.9 WSW 29 38 1007.9 - 0.0 - Partly cloudy 10 - - - -
05/09:55am 14.1 WSW 29 39 1007.8 - 0.0 - Partly cloudy 10 - - - -
05/09:30am 13.6 WSW 30 38 1007.0 - 0.0 - Partly cloudy 10 - - - -
05/09:14am 13.5 WSW 30 40 1006.8 - 0.0 - Partly cloudy 10 - - - -
05/09:00am 13.9 WSW 31 40 1006.4 - 3.6 - Cloudy 10 - - - -
05/08:30am 13.3 WSW 32 40 1005.8 - 3.6 - Partly cloudy 10 - - - -
05/08:00am 13.0 WSW 36 46 1005.1 - 3.6 - Partly cloudy 10 - - - -
05/07:30am 12.8 WSW 37 48 1003.8 - 3.6 - Partly cloudy 10 - - - -
05/07:00am 13.0 WSW 37 47 1003.2 - 3.6 - Partly cloudy 10 - - - -
05/06:47am 13.1 WSW 37 47 1003.0 - 3.6 - Partly cloudy 10 - - - -
05/06:30am 13.0 WSW 39 48 1002.2 - 3.6 - Partly cloudy 10 - - - -
05/06:08am 13.0 WSW 38 49 1001.7 - 3.6 - Partly cloudy 10 - - - -
05/06:00am 13.2 WSW 39 48 1001.5 - 3.6 - Cloudy 10 - - - -
05/05:44am 13.3 WSW 37 47 1001.2 - 3.6 - Partly cloudy 10 - - - -
05/05:30am 13.4 WSW 36 44 1000.9 - 3.6 - Partly cloudy 10 - - - -
05/05:01am 13.5 WSW 39 50 1000.3 - 3.6 - Partly cloudy 10 - - - -
05/05:00am 13.4 WSW 39 48 1000.4 - 3.6 - Partly cloudy 10 - - - -
05/04:57am 13.6 WSW 38 48 1000.2 - 3.6 - Partly cloudy 10 - - - -
05/04:40am 13.4 WSW 38 49 1000.2 - 3.6 - Partly cloudy 5 - - - -
05/04:34am 13.6 WSW 39 49 1000.3 - 3.6 - Partly cloudy 10 - - - -
05/04:30am 14.4 WSW 38 45 1000.4 - 3.6 - Partly cloudy 10 - - - -
05/04:00am 14.4 WSW 34 42 1000.2 - 3.6 - Partly cloudy 10 - - - -
05/03:30am 15.0 WSW 34 44 999.7 - 3.2 - Partly cloudy 7 - - - -
05/03:25am 14.8 W 34 44 999.8 - 3.2 - Partly cloudy 8 - - - -
05/03:21am 15.0 W 35 44 999.7 - 3.2 - Partly cloudy 10 - - - -
05/03:05am 14.8 W 30 49 999.9 - 3.0 - Partly cloudy 5 - - - -
05/03:00am 15.1 W 29 39 999.6 - 3.0 Recent precip. Cloudy 7 - - - -
05/02:57am 15.3 W 28 38 999.6 - 3.0 - Partly cloudy 9 - - - -
05/02:41am 15.0 W 30 39 1000.2 - 3.0 - Partly cloudy 10 - - - -
05/02:40am 14.9 W 31 39 1000.3 - 3.0 - Partly cloudy 10 - - - -
05/02:30am 14.5 W 33 43 1000.2 - 3.0 - Partly cloudy 5 - - - -
05/02:17am 14.8 W 30 40 1000.4 - 3.0 - Partly cloudy 5 - - - -
05/02:16am 14.8 W 31 40 1000.4 - 3.0 - Partly cloudy 5 - - - -
05/02:03am 14.8 W 31 41 1000.4 - 3.0 - Partly cloudy 4 - - - -
05/02:00am 14.9 W 31 39 1000.5 - 2.8 - Partly cloudy 4 - - - -
05/01:34am 16.0 WNW 33 50 1000.7 - 0.4 - Partly cloudy 5 - - - -
05/01:33am 16.7 WNW 32 50 1000.7 - 0.2 - Partly cloudy 7 - - - -
05/01:30am 18.0 WNW 29 41 1000.3 - 0.2 - Partly cloudy 10 - - - -
05/01:13am 18.2 WNW 26 37 1000.8 - 0.2 - Partly cloudy 10 - - - -
05/01:00am 17.9 WNW 26 35 1001.0 - 0.2 - Partly cloudy 10 - - - -
05/12:30am 18.2 WNW 27 40 1001.8 - 0.2 - Partly cloudy 10 - - - -
05/12:00am 18.0 WNW 27 37 1002.2 - 0.0 - Cloudy 10 - - - -
 
Date/Time
EDT
Temp

°C
Wind Pressure Rain
since 9am
mm
Weather Cloud Vis
km
Sea
Height
m
Swell
Dir
 
Speed
knots
Gust
knots
hPa Trend Height
m
Period
s
Dir
04/11:37pm 17.8 WNW 26 36 1002.7 - 0.0 - Partly cloudy 10 - - - -
04/11:30pm 17.3 WNW 27 36 1002.9 - 0.0 - Partly cloudy 9 - - - -
04/11:00pm 18.2 WNW 26 37 1003.3 - 0.0 - Partly cloudy 10 - - - -
04/10:33pm 18.0 WNW 26 36 1003.8 - 0.0 - Partly cloudy 10 - - - -
04/10:30pm 18.3 WNW 27 33 1004.0 - 0.0 - Partly cloudy 10 - - - -
04/10:03pm 18.1 WNW 23 33 1004.5 - 0.0 - Partly cloudy 10 - - - -
04/10:00pm 18.1 WNW 25 33 1004.5 - 0.0 - Partly cloudy 10 - - - -
04/09:31pm 17.6 WNW 26 36 1004.8 - 0.0 - Partly cloudy 10 - - - -
04/09:30pm 17.6 WNW 27 36 1004.9 - 0.0 - Partly cloudy 10 - - - -
04/09:19pm 17.5 WNW 27 37 1005.0 - 0.0 - Partly cloudy 10 - - - -
04/09:00pm 17.0 WNW 23 32 1004.9 - 0.0 - Mostly cloudy 10 - - - -
04/08:35pm 16.1 WNW 24 34 1005.1 - 0.0 - Partly cloudy 6 - - - -
04/08:30pm 16.2 WNW 26 34 1005.2 - 0.0 - Partly cloudy 7 - - - -
04/08:00pm 17.6 WNW 26 35 1005.2 - 0.0 - Partly cloudy 10 - - - -
04/07:48pm 17.6 WNW 25 35 1005.4 - 0.0 - Partly cloudy 10 - - - -
04/07:30pm 17.9 WNW 25 33 1005.4 - 0.0 - Partly cloudy 10 - - - -
04/07:17pm 18.3 WNW 24 35 1005.4 - 0.0 - Partly cloudy 10 - - - -
04/07:00pm 18.2 WNW 25 32 1005.7 - 0.0 - Partly cloudy 10 - - - -
04/06:32pm 18.3 WNW 23 33 1005.8 - 0.0 - Partly cloudy 10 - - - -
04/06:30pm 18.3 WNW 24 33 1005.9 - 0.0 - Partly cloudy 10 - - - -
04/06:00pm 17.8 WNW 25 31 1006.3 - 0.0 - Cloudy 10 - - - -
04/05:52pm 17.7 W 25 35 1006.4 - 0.0 - Partly cloudy 6 - - - -
04/05:30pm 18.5 W 23 30 1006.4 - 0.0 - Partly cloudy 10 - - - -
04/05:00pm 19.3 W 26 33 1006.5 - 0.0 - Partly cloudy 10 - - - -
04/04:30pm 19.5 WNW 23 30 1006.8 - 0.0 - Partly cloudy 10 - - - -
04/04:02pm 19.3 WNW 21 31 1007.1 - 0.0 - Partly cloudy 10 - - - -
04/04:00pm 19.7 WNW 23 32 1007.1 - 0.0 - Partly cloudy 10 - - - -
04/03:30pm 19.5 WNW 24 34 1007.5 - 0.0 - Partly cloudy 10 - - - -
04/03:26pm 19.9 WNW 24 34 1007.6 - 0.0 - Partly cloudy 10 - - - -
04/03:00pm 20.1 WNW 23 31 1007.9 - 0.0 - Mostly clear 10 - - - -
04/02:30pm 20.4 WNW 23 29 1008.1 - 0.0 - Partly cloudy 10 - - - -
04/02:00pm 20.1 W 22 28 1008.6 - 0.0 - Partly cloudy 10 - - - -
04/01:30pm 19.0 W 24 31 1009.0 - 0.0 - Partly cloudy 10 - - - -
04/01:00pm 20.0 WNW 23 30 1009.2 - 0.0 - Partly cloudy 10 - - - -
04/12:39pm 20.0 W 22 32 1009.5 - 0.0 - Partly cloudy 10 - - - -
04/12:30pm 19.8 WNW 24 32 1009.7 - 0.0 - Partly cloudy 10 - - - -
04/12:00pm 18.6 W 24 31 1010.2 - 0.0 - Cloudy 10 - - - -
04/11:30am 19.3 W 23 30 1010.4 - 0.0 - Cloudy 10 - - - -
04/11:16am 19.2 W 22 32 1010.6 - 0.0 - Partly cloudy 10 - - - -
04/11:00am 19.8 W 21 27 1010.7 - 0.0 - Partly cloudy 10 - - - -
04/10:30am 17.6 W 22 31 1011.1 - 0.0 - Partly cloudy 10 - - - -
04/10:21am 17.4 W 21 31 1011.2 - 0.0 - Partly cloudy 10 - - - -
04/10:00am 17.3 W 26 31 1011.1 - 0.0 - Partly cloudy 10 - - - -
04/09:49am 17.8 W 21 31 1011.0 - 0.0 - Partly cloudy 10 - - - -
04/09:30am 18.1 W 21 29 1011.0 - 0.0 - Partly cloudy 10 - - - -
04/09:00am 17.3 W 20 28 1011.2 - 0.0 - Cloudy 10 - - - -
04/08:30am 17.4 WNW 21 27 1011.1 - 0.0 - Partly cloudy 10 - - - -
04/08:00am 17.4 WNW 21 30 1011.0 - 0.0 - Cloudy 10 - - - -
04/07:30am 17.1 W 23 33 1011.0 - 0.0 - Partly cloudy 10 - - - -
04/07:22am 17.0 W 23 33 1010.9 - 0.0 - Partly cloudy 10 - - - -
04/07:00am 16.7 W 21 29 1010.9 - 0.0 - Partly cloudy 10 - - - -
04/06:30am 16.7 W 21 28 1010.7 - 0.0 - Partly cloudy 10 - - - -
04/06:00am 16.4 W 18 26 1010.9 - 0.0 - Cloudy 10 - - - -
04/05:30am 16.2 W 20 27 1011.0 - 0.0 - Partly cloudy 10 - - - -
04/05:00am 16.3 W 21 30 1011.2 - 0.0 - Partly cloudy 10 - - - -
04/04:30am 16.6 W 23 29 1011.3 - 0.0 - Partly cloudy 10 - - - -
04/04:00am 16.1 W 18 23 1011.4 - 0.0 - Partly cloudy 10 - - - -
04/03:30am 16.3 W 20 26 1011.5 - 0.0 - Partly cloudy 10 - - - -
04/03:00am 16.7 W 22 28 1011.6 - 0.0 - Mostly cloudy 10 - - - -
04/02:30am 16.7 WNW 17 25 1011.9 - 0.0 - - 10 - - - -
04/02:00am 16.8 W 17 23 1012.4 - 0.0 - Partly cloudy 10 - - - -
04/01:30am 16.7 WNW 18 22 1012.9 - 0.0 - Partly cloudy 10 - - - -
04/01:00am 16.7 W 17 22 1013.2 - 0.0 - Partly cloudy 10 - - - -
04/12:30am 17.0 W 17 22 1013.4 - 0.0 - Partly cloudy 10 - - - -
04/12:00am 17.0 W 17 22 1013.8 - 0.0 - Mostly cloudy 10 - - - -
 
Date/Time
EDT
Temp

°C
Wind Pressure Rain
since 9am
mm
Weather Cloud Vis
km
Sea
Height
m
Swell
Dir
 
Speed
knots
Gust
knots
hPa Trend Height
m
Period
s
Dir
03/11:30pm 16.9 W 19 23 1014.1 - 0.0 - Partly cloudy 10 - - - -
03/11:00pm 17.0 W 20 24 1014.1 - 0.0 - Partly cloudy 10 - - - -
03/10:30pm 17.1 W 17 21 1014.4 - 0.0 - Partly cloudy 10 - - - -

Other Formats:

Comma delimited format used in spreadsheet applications
http://www.bom.gov.au/fwo/IDT60701/IDT60701.94980.axf

JavaScript Object Notation format (JSON) in row-major order
http://www.bom.gov.au/fwo/IDT60701/IDT60701.94980.json